Shana Des Slops — FFZR — position and weather

sailwx.info

Track history (hours):
 
Tides and Currents Weather Stations Pressure Air Temp Water Temp Dewpoint Dewpoint Depression Visibility Wind Speed Wind Dir Waves Ship Positions

Shana Des Slops

Last reported at 2014-Aug-31 00:31 UTC. Time now 2014-Aug-31 00:38 UTC.
Position N 43°24' E 004°60'.

Length 47 m; draft 3.2 m.

Type: Tanker. MMSI: 228003800.

Date/timePositionNaut miles runAvg speedWind from/ knotsBaromVisibWave heightAir tempDewpointWater temp
2014-Aug-31 00:31N 43°24' E 004°60'0 0.0
2014-Aug-30 23:31N 43°24' E 004°60'0 0.0
2014-Aug-30 22:31N 43°24' E 004°60'0 0.0
2014-Aug-30 21:31N 43°24' E 004°60'0 0.0
2014-Aug-30 20:31N 43°24' E 004°60'0 0.0
2014-Aug-30 19:31N 43°24' E 004°60'0 0.0
2014-Aug-30 18:31N 43°24' E 004°60'0 0.0
2014-Aug-30 17:31N 43°24' E 004°60'0 0.0
2014-Aug-30 16:33N 43°24' E 004°60'0 0.0
2014-Aug-30 15:31N 43°24' E 004°60'0 0.0
2014-Aug-30 14:31N 43°24' E 004°60'0 0.0
2014-Aug-30 13:31N 43°24' E 004°60'0 0.0
2014-Aug-30 12:31N 43°24' E 004°60'0 0.0
2014-Aug-30 11:31N 43°24' E 004°60'0 0.0
2014-Aug-30 10:31N 43°24' E 004°60'0 0.0
2014-Aug-30 09:31N 43°24' E 004°60'0 0.0
2014-Aug-30 08:31N 43°24' E 004°60'0 0.0
2014-Aug-30 07:31N 43°24' E 004°60'0 0.0
2014-Aug-30 06:31N 43°24' E 004°60'0 0.0
2014-Aug-30 05:31N 43°24' E 004°60'0 0.0
2014-Aug-30 04:32N 43°24' E 004°60'0 0.0
2014-Aug-30 03:31N 43°24' E 004°60'0 0.0
2014-Aug-30 02:31N 43°24' E 004°60'0 0.0
2014-Aug-30 01:31N 43°24' E 004°60'0 0.0
2014-Aug-30 00:31N 43°24' E 004°60'0 0.0
2014-Aug-29 23:31N 43°24' E 004°60'0 0.0
2014-Aug-29 22:31N 43°24' E 004°60'0 0.0
2014-Aug-29 21:31N 43°24' E 004°60'0 0.0
2014-Aug-29 20:31N 43°24' E 004°60'0 0.0
2014-Aug-29 19:31N 43°24' E 004°60'0 0.0
2014-Aug-29 18:31N 43°24' E 004°60'0 0.0
2014-Aug-29 17:31N 43°24' E 004°60'0 0.0
2014-Aug-29 16:31N 43°24' E 004°60'0 0.0
2014-Aug-29 15:31N 43°24' E 004°60'0 0.0
2014-Aug-29 14:31N 43°24' E 004°60'0 0.0
2014-Aug-29 13:34N 43°24' E 004°60'4 3.8
2014-Aug-29 12:34N 43°24' E 004°55'1 1.4
2014-Aug-29 11:31N 43°25' E 004°53'0 0.0
2014-Aug-29 10:31N 43°25' E 004°53'1 0.5
2014-Aug-29 09:34N 43°24' E 004°53'5 4.6
2014-Aug-29 08:31N 43°24' E 004°60'0 0.0
2014-Aug-29 07:31N 43°24' E 004°60'0 0.0
2014-Aug-29 06:31N 43°24' E 004°60'0 0.0
2014-Aug-29 05:31N 43°24' E 004°60'0 0.0
2014-Aug-29 04:33N 43°24' E 004°60'0 0.0
2014-Aug-29 03:33N 43°24' E 004°60'0 0.0
2014-Aug-29 02:33N 43°24' E 004°60'0 0.0
2014-Aug-29 01:33N 43°24' E 004°60'0 0.0
2014-Aug-29 00:33N 43°24' E 004°60'0 0.0
2014-Aug-28 23:33N 43°24' E 004°60'0 0.0
2014-Aug-28 22:33N 43°24' E 004°60'0 0.0
2014-Aug-28 21:33N 43°24' E 004°60'0 0.0
2014-Aug-28 20:33N 43°24' E 004°60'0 0.0
2014-Aug-28 19:33N 43°24' E 004°60'0 0.0
2014-Aug-28 18:33N 43°24' E 004°60'0 0.0
2014-Aug-28 17:33N 43°24' E 004°60'0 0.0
2014-Aug-28 16:33N 43°24' E 004°60'0 0.0
2014-Aug-28 15:33N 43°24' E 004°60'0 0.0
2014-Aug-28 14:33N 43°24' E 004°60'0 0.0
2014-Aug-28 13:33N 43°24' E 004°60'0 0.0
2014-Aug-28 12:33N 43°24' E 004°60'0 0.0
2014-Aug-28 11:33N 43°24' E 004°60'3 2.6
2014-Aug-28 10:33N 43°24' E 004°56'3 2.6
2014-Aug-28 09:32N 43°26' E 004°54'0 0.0
2014-Aug-28 08:32N 43°26' E 004°54'0 0.0
2014-Aug-28 07:32N 43°26' E 004°54'1 0.7
2014-Aug-28 06:34N 43°25' E 004°53'5 5.0
2014-Aug-28 05:34N 43°24' E 004°60'0 0.0
2014-Aug-28 04:34N 43°24' E 004°60'0 0.0
2014-Aug-28 03:34N 43°24' E 004°60'0 0.0
2014-Aug-28 02:33N 43°24' E 004°60'0 0.0
2014-Aug-28 01:34N 43°24' E 004°60'0 0.0
2014-Aug-28 00:34N 43°24' E 004°60'0 0.0
2014-Aug-27 23:34N 43°24' E 004°60'0 0.0
2014-Aug-27 22:33N 43°24' E 004°60'0 0.0
2014-Aug-27 21:34N 43°24' E 004°60'0 0.0
2014-Aug-27 20:34N 43°24' E 004°60'0 0.0
2014-Aug-27 19:33N 43°24' E 004°60'0 0.0
2014-Aug-27 18:34N 43°24' E 004°60'0 0.0
2014-Aug-27 17:34N 43°24' E 004°60'0 0.0
2014-Aug-27 16:33N 43°24' E 004°60'0 0.0
2014-Aug-27 15:34N 43°24' E 004°60'0 0.0
2014-Aug-27 14:34N 43°24' E 004°60'0 0.0
2014-Aug-27 13:34N 43°24' E 004°60'0 0.0
2014-Aug-27 12:34N 43°24' E 004°60'0 0.0
2014-Aug-27 11:33N 43°24' E 004°60'0 0.0
2014-Aug-27 10:34N 43°24' E 004°60'0 0.0
2014-Aug-27 09:34N 43°24' E 004°60'0 0.0
2014-Aug-27 08:34N 43°24' E 004°60'0 0.0
2014-Aug-27 07:34N 43°24' E 004°60'0 0.0
2014-Aug-27 06:33N 43°24' E 004°60'0 0.0
2014-Aug-27 05:34N 43°24' E 004°60'0 0.0
2014-Aug-27 04:34N 43°24' E 004°60'0 0.0
2014-Aug-27 03:33N 43°24' E 004°60'0 0.0
2014-Aug-27 02:34N 43°24' E 004°60'0 0.0
2014-Aug-27 01:33N 43°24' E 004°60'0 0.0
2014-Aug-27 00:33N 43°24' E 004°60'0 0.0
2014-Aug-26 23:33N 43°24' E 004°60'0 0.0
2014-Aug-26 22:33N 43°24' E 004°60'0 0.0
2014-Aug-26 21:33N 43°24' E 004°60'0 0.0
2014-Aug-26 20:34N 43°24' E 004°60'0 0.0
2014-Aug-26 19:34N 43°24' E 004°60'0 0.0
2014-Aug-26 18:33N 43°24' E 004°60'0 0.0
2014-Aug-26 17:33N 43°24' E 004°60'0 0.0
2014-Aug-26 16:34N 43°24' E 004°60'0 0.0
2014-Aug-26 15:34N 43°24' E 004°60'2 2.1
2014-Aug-26 14:32N 43°25' E 004°57'0 0.0
2014-Aug-26 13:32N 43°25' E 004°57'0 0.0
2014-Aug-26 12:32N 43°25' E 004°57'0 0.0
2014-Aug-26 11:32N 43°25' E 004°57'0 0.0
2014-Aug-26 10:32N 43°25' E 004°57'3 3.3
2014-Aug-26 09:32N 43°26' E 004°53'0 0.0
2014-Aug-26 08:32N 43°26' E 004°53'4 3.9
2014-Aug-26 07:34N 43°24' E 004°57'2 2.2
2014-Aug-26 06:33N 43°24' E 004°60'0 0.0
2014-Aug-26 05:33N 43°24' E 004°60'0 0.0
2014-Aug-26 04:33N 43°24' E 004°60'0 0.0
2014-Aug-26 03:31N 43°24' E 004°60'0 0.0
2014-Aug-26 02:31N 43°24' E 004°60'0 0.0
2014-Aug-26 01:31N 43°24' E 004°60'0 0.0
2014-Aug-26 00:31N 43°24' E 004°60'0 0.0
2014-Aug-25 23:31N 43°24' E 004°60'0 0.0
2014-Aug-25 22:31N 43°24' E 004°60'0 0.0
2014-Aug-25 21:31N 43°24' E 004°60'0 0.0
2014-Aug-25 20:31N 43°24' E 004°60'0 0.0
2014-Aug-25 19:31N 43°24' E 004°60'0 0.0
2014-Aug-25 18:31N 43°24' E 004°60'4 3.9
2014-Aug-25 17:34N 43°21' E 004°57'9 8.8
2014-Aug-25 16:33N 43°19' E 004°45'9 9.3
2014-Aug-25 15:32N 43°19' E 004°32'22 9.2
2014-Aug-25 13:09N 43°23' E 004°02'7 9.9
2014-Aug-25 12:29N 43°23' E 003°53'8 3.1
2014-Aug-25 10:05N 43°24' E 003°43'0 0.0
2014-Aug-25 07:28N 43°24' E 003°43'0 0.0
2014-Aug-25 01:04N 43°24' E 003°42'0 0.0
2014-Aug-24 14:25N 43°24' E 003°42'0 0.0
2014-Aug-24 12:28N 43°24' E 003°42'0 0.0
2014-Aug-24 11:28N 43°24' E 003°42'0 0.0
2014-Aug-24 10:12N 43°24' E 003°42'0 0.0
2014-Aug-24 09:29N 43°24' E 003°42'0 0.0
2014-Aug-24 08:25N 43°24' E 003°42'0 0.0
2014-Aug-24 07:22N 43°24' E 003°42'0 0.0
2014-Aug-24 06:28N 43°24' E 003°42'0 0.0
2014-Aug-24 04:13N 43°24' E 003°42'0 0.0
2014-Aug-24 01:27N 43°24' E 003°42'0 0.0
2014-Aug-24 00:24N 43°24' E 003°42'0 0.0
2014-Aug-23 23:33N 43°24' E 003°42'0 0.0
2014-Aug-23 22:27N 43°24' E 003°42'0 0.0
2014-Aug-23 21:07N 43°24' E 003°42'0 0.0
2014-Aug-23 19:14N 43°24' E 003°42'46 2.9
2014-Aug-23 03:33N 43°19' E 004°45'9 8.6
2014-Aug-23 02:34N 43°21' E 004°56'4 4.1
2014-Aug-23 01:33N 43°24' E 004°60'0 0.0
2014-Aug-23 00:30N 43°24' E 004°60'0 0.0
2014-Aug-22 23:33N 43°24' E 004°60'0 0.0
2014-Aug-22 22:33N 43°24' E 004°60'0 0.0
2014-Aug-22 21:34N 43°24' E 004°60'0 0.0
2014-Aug-22 20:33N 43°24' E 004°60'0 0.0
2014-Aug-22 19:33N 43°24' E 004°60'0 0.0
2014-Aug-22 18:33N 43°24' E 004°60'0 0.0
2014-Aug-22 17:33N 43°24' E 004°60'0 0.0
2014-Aug-22 16:33N 43°24' E 004°60'0 0.0
2014-Aug-22 15:30N 43°24' E 004°60'0 0.0
2014-Aug-22 14:33N 43°24' E 004°60'0 0.0
2014-Aug-22 13:33N 43°24' E 004°60'0 0.0
2014-Aug-22 12:33N 43°24' E 004°60'0 0.0
2014-Aug-22 11:33N 43°24' E 004°60'0 0.0
2014-Aug-22 10:33N 43°24' E 004°60'0 0.0
2014-Aug-22 09:33N 43°24' E 004°60'0 0.0
2014-Aug-22 08:31N 43°24' E 004°60'0 0.0
2014-Aug-22 07:33N 43°24' E 004°60'0 0.0
2014-Aug-22 06:33N 43°24' E 004°60'0 0.0
2014-Aug-22 05:33N 43°24' E 004°60'0 0.0
2014-Aug-22 04:33N 43°24' E 004°60'0 0.0
2014-Aug-22 03:33N 43°24' E 004°60'0 0.0
2014-Aug-22 02:33N 43°24' E 004°60'0 0.0
2014-Aug-22 01:33N 43°24' E 004°60'0 0.0
2014-Aug-22 00:33N 43°24' E 004°60'0 0.0
2014-Aug-21 23:33N 43°24' E 004°60'0 0.0
2014-Aug-21 22:33N 43°24' E 004°60'0 0.0
2014-Aug-21 21:33N 43°24' E 004°60'0 0.0
2014-Aug-21 20:33N 43°24' E 004°60'0 0.0
2014-Aug-21 19:33N 43°24' E 004°60'0 0.0
2014-Aug-21 18:33N 43°24' E 004°60'0 0.0
2014-Aug-21 17:33N 43°24' E 004°60'0 0.0
2014-Aug-21 16:33N 43°24' E 004°60'0 0.0
2014-Aug-21 15:33N 43°24' E 004°60'0 0.0
2014-Aug-21 14:33N 43°24' E 004°60'0 0.0
2014-Aug-21 13:33N 43°24' E 004°60'0 0.0
2014-Aug-21 12:33N 43°24' E 004°60'0 0.0
2014-Aug-21 11:33N 43°24' E 004°60'0 0.0
2014-Aug-21 10:33N 43°24' E 004°60'0 0.0
2014-Aug-21 09:32N 43°24' E 004°60'0 0.0
2014-Aug-21 08:32N 43°24' E 004°60'0 0.0
2014-Aug-21 07:32N 43°24' E 004°60'0 0.0
2014-Aug-21 06:32N 43°24' E 004°60'0 0.0
2014-Aug-21 05:32N 43°24' E 004°60'0 0.0
2014-Aug-21 04:32N 43°24' E 004°60'0 0.0
2014-Aug-21 03:32N 43°24' E 004°60'0 0.0
2014-Aug-21 02:32N 43°24' E 004°60'0 0.0
2014-Aug-21 01:32N 43°24' E 004°60'0 0.0
2014-Aug-21 00:32N 43°24' E 004°60'  
Track history (hours):
 
Tides and Currents Weather Stations Pressure Air Temp Water Temp Dewpoint Dewpoint Depression Visibility Wind Speed Wind Dir Waves Ship Positions

Shana Des Slops

Last reported at 2014-Aug-31 00:31 UTC. Time now 2014-Aug-31 00:38 UTC.
Position N 43°24' E 004°60'.

Length 47 m; draft 3.2 m.

Type: Tanker. MMSI: 228003800.

Date/timePositionNaut miles runAvg speedWind from/ knotsBaromVisibWave heightAir tempDewpointWater temp
2014-Aug-31 00:31N 43°24' E 004°60'0 0.0
2014-Aug-30 23:31N 43°24' E 004°60'0 0.0
2014-Aug-30 22:31N 43°24' E 004°60'0 0.0
2014-Aug-30 21:31N 43°24' E 004°60'0 0.0
2014-Aug-30 20:31N 43°24' E 004°60'0 0.0
2014-Aug-30 19:31N 43°24' E 004°60'0 0.0
2014-Aug-30 18:31N 43°24' E 004°60'0 0.0
2014-Aug-30 17:31N 43°24' E 004°60'0 0.0
2014-Aug-30 16:33N 43°24' E 004°60'0 0.0
2014-Aug-30 15:31N 43°24' E 004°60'0 0.0
2014-Aug-30 14:31N 43°24' E 004°60'0 0.0
2014-Aug-30 13:31N 43°24' E 004°60'0 0.0
2014-Aug-30 12:31N 43°24' E 004°60'0 0.0
2014-Aug-30 11:31N 43°24' E 004°60'0 0.0
2014-Aug-30 10:31N 43°24' E 004°60'0 0.0
2014-Aug-30 09:31N 43°24' E 004°60'0 0.0
2014-Aug-30 08:31N 43°24' E 004°60'0 0.0
2014-Aug-30 07:31N 43°24' E 004°60'0 0.0
2014-Aug-30 06:31N 43°24' E 004°60'0 0.0
2014-Aug-30 05:31N 43°24' E 004°60'0 0.0
2014-Aug-30 04:32N 43°24' E 004°60'0 0.0
2014-Aug-30 03:31N 43°24' E 004°60'0 0.0
2014-Aug-30 02:31N 43°24' E 004°60'0 0.0
2014-Aug-30 01:31N 43°24' E 004°60'0 0.0
2014-Aug-30 00:31N 43°24' E 004°60'0 0.0
2014-Aug-29 23:31N 43°24' E 004°60'0 0.0
2014-Aug-29 22:31N 43°24' E 004°60'0 0.0
2014-Aug-29 21:31N 43°24' E 004°60'0 0.0
2014-Aug-29 20:31N 43°24' E 004°60'0 0.0
2014-Aug-29 19:31N 43°24' E 004°60'0 0.0
2014-Aug-29 18:31N 43°24' E 004°60'0 0.0
2014-Aug-29 17:31N 43°24' E 004°60'0 0.0
2014-Aug-29 16:31N 43°24' E 004°60'0 0.0
2014-Aug-29 15:31N 43°24' E 004°60'0 0.0
2014-Aug-29 14:31N 43°24' E 004°60'0 0.0
2014-Aug-29 13:34N 43°24' E 004°60'4 3.8
2014-Aug-29 12:34N 43°24' E 004°55'1 1.4
2014-Aug-29 11:31N 43°25' E 004°53'0 0.0
2014-Aug-29 10:31N 43°25' E 004°53'1 0.5
2014-Aug-29 09:34N 43°24' E 004°53'5 4.6
2014-Aug-29 08:31N 43°24' E 004°60'0 0.0
2014-Aug-29 07:31N 43°24' E 004°60'0 0.0
2014-Aug-29 06:31N 43°24' E 004°60'0 0.0
2014-Aug-29 05:31N 43°24' E 004°60'0 0.0
2014-Aug-29 04:33N 43°24' E 004°60'0 0.0
2014-Aug-29 03:33N 43°24' E 004°60'0 0.0
2014-Aug-29 02:33N 43°24' E 004°60'0 0.0
2014-Aug-29 01:33N 43°24' E 004°60'0 0.0
2014-Aug-29 00:33N 43°24' E 004°60'0 0.0
2014-Aug-28 23:33N 43°24' E 004°60'0 0.0
2014-Aug-28 22:33N 43°24' E 004°60'0 0.0
2014-Aug-28 21:33N 43°24' E 004°60'0 0.0
2014-Aug-28 20:33N 43°24' E 004°60'0 0.0
2014-Aug-28 19:33N 43°24' E 004°60'0 0.0
2014-Aug-28 18:33N 43°24' E 004°60'0 0.0
2014-Aug-28 17:33N 43°24' E 004°60'0 0.0
2014-Aug-28 16:33N 43°24' E 004°60'0 0.0
2014-Aug-28 15:33N 43°24' E 004°60'0 0.0
2014-Aug-28 14:33N 43°24' E 004°60'0 0.0
2014-Aug-28 13:33N 43°24' E 004°60'0 0.0
2014-Aug-28 12:33N 43°24' E 004°60'0 0.0
2014-Aug-28 11:33N 43°24' E 004°60'3 2.6
2014-Aug-28 10:33N 43°24' E 004°56'3 2.6
2014-Aug-28 09:32N 43°26' E 004°54'0 0.0
2014-Aug-28 08:32N 43°26' E 004°54'0 0.0
2014-Aug-28 07:32N 43°26' E 004°54'1 0.7
2014-Aug-28 06:34N 43°25' E 004°53'5 5.0
2014-Aug-28 05:34N 43°24' E 004°60'0 0.0
2014-Aug-28 04:34N 43°24' E 004°60'0 0.0
2014-Aug-28 03:34N 43°24' E 004°60'0 0.0
2014-Aug-28 02:33N 43°24' E 004°60'0 0.0
2014-Aug-28 01:34N 43°24' E 004°60'0 0.0
2014-Aug-28 00:34N 43°24' E 004°60'0 0.0
2014-Aug-27 23:34N 43°24' E 004°60'0 0.0
2014-Aug-27 22:33N 43°24' E 004°60'0 0.0
2014-Aug-27 21:34N 43°24' E 004°60'0 0.0
2014-Aug-27 20:34N 43°24' E 004°60'0 0.0
2014-Aug-27 19:33N 43°24' E 004°60'0 0.0
2014-Aug-27 18:34N 43°24' E 004°60'0 0.0
2014-Aug-27 17:34N 43°24' E 004°60'0 0.0
2014-Aug-27 16:33N 43°24' E 004°60'0 0.0
2014-Aug-27 15:34N 43°24' E 004°60'0 0.0
2014-Aug-27 14:34N 43°24' E 004°60'0 0.0
2014-Aug-27 13:34N 43°24' E 004°60'0 0.0
2014-Aug-27 12:34N 43°24' E 004°60'0 0.0
2014-Aug-27 11:33N 43°24' E 004°60'0 0.0
2014-Aug-27 10:34N 43°24' E 004°60'0 0.0
2014-Aug-27 09:34N 43°24' E 004°60'0 0.0
2014-Aug-27 08:34N 43°24' E 004°60'0 0.0
2014-Aug-27 07:34N 43°24' E 004°60'0 0.0
2014-Aug-27 06:33N 43°24' E 004°60'0 0.0
2014-Aug-27 05:34N 43°24' E 004°60'0 0.0
2014-Aug-27 04:34N 43°24' E 004°60'0 0.0
2014-Aug-27 03:33N 43°24' E 004°60'0 0.0
2014-Aug-27 02:34N 43°24' E 004°60'0 0.0
2014-Aug-27 01:33N 43°24' E 004°60'0 0.0
2014-Aug-27 00:33N 43°24' E 004°60'0 0.0
2014-Aug-26 23:33N 43°24' E 004°60'0 0.0
2014-Aug-26 22:33N 43°24' E 004°60'0 0.0
2014-Aug-26 21:33N 43°24' E 004°60'0 0.0
2014-Aug-26 20:34N 43°24' E 004°60'0 0.0
2014-Aug-26 19:34N 43°24' E 004°60'0 0.0
2014-Aug-26 18:33N 43°24' E 004°60'0 0.0
2014-Aug-26 17:33N 43°24' E 004°60'0 0.0
2014-Aug-26 16:34N 43°24' E 004°60'0 0.0
2014-Aug-26 15:34N 43°24' E 004°60'2 2.1
2014-Aug-26 14:32N 43°25' E 004°57'0 0.0
2014-Aug-26 13:32N 43°25' E 004°57'0 0.0
2014-Aug-26 12:32N 43°25' E 004°57'0 0.0
2014-Aug-26 11:32N 43°25' E 004°57'0 0.0
2014-Aug-26 10:32N 43°25' E 004°57'3 3.3
2014-Aug-26 09:32N 43°26' E 004°53'0 0.0
2014-Aug-26 08:32N 43°26' E 004°53'4 3.9
2014-Aug-26 07:34N 43°24' E 004°57'2 2.2
2014-Aug-26 06:33N 43°24' E 004°60'0 0.0
2014-Aug-26 05:33N 43°24' E 004°60'0 0.0
2014-Aug-26 04:33N 43°24' E 004°60'0 0.0
2014-Aug-26 03:31N 43°24' E 004°60'0 0.0
2014-Aug-26 02:31N 43°24' E 004°60'0 0.0
2014-Aug-26 01:31N 43°24' E 004°60'0 0.0
2014-Aug-26 00:31N 43°24' E 004°60'0 0.0
2014-Aug-25 23:31N 43°24' E 004°60'0 0.0
2014-Aug-25 22:31N 43°24' E 004°60'0 0.0
2014-Aug-25 21:31N 43°24' E 004°60'0 0.0
2014-Aug-25 20:31N 43°24' E 004°60'0 0.0
2014-Aug-25 19:31N 43°24' E 004°60'0 0.0
2014-Aug-25 18:31N 43°24' E 004°60'4 3.9
2014-Aug-25 17:34N 43°21' E 004°57'9 8.8
2014-Aug-25 16:33N 43°19' E 004°45'9 9.3
2014-Aug-25 15:32N 43°19' E 004°32'22 9.2
2014-Aug-25 13:09N 43°23' E 004°02'7 9.9
2014-Aug-25 12:29N 43°23' E 003°53'8 3.1
2014-Aug-25 10:05N 43°24' E 003°43'0 0.0
2014-Aug-25 07:28N 43°24' E 003°43'0 0.0
2014-Aug-25 01:04N 43°24' E 003°42'0 0.0
2014-Aug-24 14:25N 43°24' E 003°42'0 0.0
2014-Aug-24 12:28N 43°24' E 003°42'0 0.0
2014-Aug-24 11:28N 43°24' E 003°42'0 0.0
2014-Aug-24 10:12N 43°24' E 003°42'0 0.0
2014-Aug-24 09:29N 43°24' E 003°42'0 0.0
2014-Aug-24 08:25N 43°24' E 003°42'0 0.0
2014-Aug-24 07:22N 43°24' E 003°42'0 0.0
2014-Aug-24 06:28N 43°24' E 003°42'0 0.0
2014-Aug-24 04:13N 43°24' E 003°42'0 0.0
2014-Aug-24 01:27N 43°24' E 003°42'0 0.0
2014-Aug-24 00:24N 43°24' E 003°42'0 0.0
2014-Aug-23 23:33N 43°24' E 003°42'0 0.0
2014-Aug-23 22:27N 43°24' E 003°42'0 0.0
2014-Aug-23 21:07N 43°24' E 003°42'0 0.0
2014-Aug-23 19:14N 43°24' E 003°42'46 2.9
2014-Aug-23 03:33N 43°19' E 004°45'9 8.6
2014-Aug-23 02:34N 43°21' E 004°56'4 4.1
2014-Aug-23 01:33N 43°24' E 004°60'0 0.0
2014-Aug-23 00:30N 43°24' E 004°60'0 0.0
2014-Aug-22 23:33N 43°24' E 004°60'0 0.0
2014-Aug-22 22:33N 43°24' E 004°60'0 0.0
2014-Aug-22 21:34N 43°24' E 004°60'0 0.0
2014-Aug-22 20:33N 43°24' E 004°60'0 0.0
2014-Aug-22 19:33N 43°24' E 004°60'0 0.0
2014-Aug-22 18:33N 43°24' E 004°60'0 0.0
2014-Aug-22 17:33N 43°24' E 004°60'0 0.0
2014-Aug-22 16:33N 43°24' E 004°60'0 0.0
2014-Aug-22 15:30N 43°24' E 004°60'0 0.0
2014-Aug-22 14:33N 43°24' E 004°60'0 0.0
2014-Aug-22 13:33N 43°24' E 004°60'0 0.0
2014-Aug-22 12:33N 43°24' E 004°60'0 0.0
2014-Aug-22 11:33N 43°24' E 004°60'0 0.0
2014-Aug-22 10:33N 43°24' E 004°60'0 0.0
2014-Aug-22 09:33N 43°24' E 004°60'0 0.0
2014-Aug-22 08:31N 43°24' E 004°60'0 0.0
2014-Aug-22 07:33N 43°24' E 004°60'0 0.0
2014-Aug-22 06:33N 43°24' E 004°60'0 0.0
2014-Aug-22 05:33N 43°24' E 004°60'0 0.0
2014-Aug-22 04:33N 43°24' E 004°60'0 0.0
2014-Aug-22 03:33N 43°24' E 004°60'0 0.0
2014-Aug-22 02:33N 43°24' E 004°60'0 0.0
2014-Aug-22 01:33N 43°24' E 004°60'0 0.0
2014-Aug-22 00:33N 43°24' E 004°60'0 0.0
2014-Aug-21 23:33N 43°24' E 004°60'0 0.0
2014-Aug-21 22:33N 43°24' E 004°60'0 0.0
2014-Aug-21 21:33N 43°24' E 004°60'0 0.0
2014-Aug-21 20:33N 43°24' E 004°60'0 0.0
2014-Aug-21 19:33N 43°24' E 004°60'0 0.0
2014-Aug-21 18:33N 43°24' E 004°60'0 0.0
2014-Aug-21 17:33N 43°24' E 004°60'0 0.0
2014-Aug-21 16:33N 43°24' E 004°60'0 0.0
2014-Aug-21 15:33N 43°24' E 004°60'0 0.0
2014-Aug-21 14:33N 43°24' E 004°60'0 0.0
2014-Aug-21 13:33N 43°24' E 004°60'0 0.0
2014-Aug-21 12:33N 43°24' E 004°60'0 0.0
2014-Aug-21 11:33N 43°24' E 004°60'0 0.0
2014-Aug-21 10:33N 43°24' E 004°60'0 0.0
2014-Aug-21 09:32N 43°24' E 004°60'0 0.0
2014-Aug-21 08:32N 43°24' E 004°60'0 0.0
2014-Aug-21 07:32N 43°24' E 004°60'0 0.0
2014-Aug-21 06:32N 43°24' E 004°60'0 0.0
2014-Aug-21 05:32N 43°24' E 004°60'0 0.0
2014-Aug-21 04:32N 43°24' E 004°60'0 0.0
2014-Aug-21 03:32N 43°24' E 004°60'0 0.0
2014-Aug-21 02:32N 43°24' E 004°60'0 0.0
2014-Aug-21 01:32N 43°24' E 004°60'0 0.0
2014-Aug-21 00:32N 43°24' E 004°60'  

Dump ship's entire track history